createdAt,value
2023-04-22T00:02:18.886Z,12.40
2023-04-22T00:04:49.293Z,12.40
2023-04-22T00:07:16.403Z,12.40
2023-04-22T00:09:42.446Z,12.30
2023-04-22T00:12:11.003Z,12.30
2023-04-22T00:14:37.346Z,12.28
2023-04-22T00:17:03.474Z,12.20
2023-04-22T00:19:29.966Z,12.20
2023-04-22T00:21:55.918Z,12.20
2023-04-22T00:24:21.789Z,12.18
2023-04-22T00:26:47.712Z,12.10
2023-04-22T00:29:13.557Z,12.10
2023-04-22T00:31:39.434Z,12.10
2023-04-22T00:34:05.409Z,12.10
2023-04-22T00:36:31.435Z,12.10
2023-04-22T00:38:57.364Z,12.10
2023-04-22T00:41:24.298Z,12.02
2023-04-22T00:43:52.784Z,12.00
2023-04-22T00:46:20.054Z,12.00
2023-04-22T00:48:46.315Z,11.98
2023-04-22T00:51:12.200Z,11.90
2023-04-22T00:53:39.289Z,11.90
2023-04-22T00:56:05.547Z,11.90
2023-04-22T00:58:32.656Z,11.90
2023-04-22T01:00:58.688Z,11.90
2023-04-22T01:03:27.805Z,11.90
2023-04-22T01:05:53.822Z,11.90
2023-04-22T01:08:20.514Z,11.90
2023-04-22T01:10:46.656Z,11.90
2023-04-22T01:13:12.546Z,11.88
2023-04-22T01:15:38.491Z,11.80
2023-04-22T01:18:04.994Z,11.80
2023-04-22T01:20:31.213Z,11.80
2023-04-22T01:23:02.780Z,11.80
2023-04-22T01:25:29.058Z,11.80
2023-04-22T01:27:55.636Z,11.80
2023-04-22T01:30:21.520Z,11.80
2023-04-22T01:32:47.736Z,11.70
2023-04-22T01:35:13.794Z,11.70
2023-04-22T01:37:39.943Z,11.70
2023-04-22T01:40:08.648Z,11.70
2023-04-22T01:42:35.366Z,11.60
2023-04-22T01:45:01.348Z,11.60
2023-04-22T01:47:27.211Z,11.60
2023-04-22T01:49:53.159Z,11.60
2023-04-22T01:52:20.452Z,11.50
2023-04-22T01:54:47.946Z,11.50
2023-04-22T01:57:15.745Z,11.50
2023-04-22T01:59:42.393Z,11.50
2023-04-22T02:02:08.618Z,11.46
2023-04-22T02:04:35.195Z,11.40
2023-04-22T02:07:01.306Z,11.40
2023-04-22T02:09:27.285Z,11.40
2023-04-22T02:11:53.152Z,11.30
2023-04-22T02:14:20.817Z,11.30
2023-04-22T02:16:46.732Z,11.30
2023-04-22T02:19:12.703Z,11.30
2023-04-22T02:21:39.285Z,11.20
2023-04-22T02:24:05.843Z,11.20
2023-04-22T02:26:31.750Z,11.20
2023-04-22T02:28:57.814Z,11.16
2023-04-22T02:31:25.127Z,11.10
2023-04-22T02:33:51.275Z,11.10
2023-04-22T02:36:17.556Z,11.00
2023-04-22T02:38:44.217Z,11.00
2023-04-22T02:41:10.103Z,11.00
2023-04-22T02:43:36.427Z,10.90
2023-04-22T02:46:02.288Z,10.90
2023-04-22T02:48:28.708Z,10.80
2023-04-22T02:50:54.565Z,10.80
2023-04-22T02:53:20.457Z,10.80
2023-04-22T02:55:46.374Z,10.70
2023-04-22T02:58:12.232Z,10.70
2023-04-22T03:00:38.129Z,10.70
2023-04-22T03:03:04.121Z,10.70
2023-04-22T03:05:33.322Z,10.70
2023-04-22T03:07:59.608Z,10.60
2023-04-22T03:10:25.765Z,10.60
2023-04-22T03:12:51.760Z,10.60
2023-04-22T03:15:21.076Z,10.60
2023-04-22T03:17:47.666Z,10.60
2023-04-22T03:20:14.533Z,10.56
2023-04-22T03:22:40.937Z,10.50
2023-04-22T03:25:09.816Z,10.50
2023-04-22T03:27:35.897Z,10.40
2023-04-22T03:30:04.018Z,10.40
2023-04-22T03:32:30.015Z,10.30
2023-04-22T03:35:11.789Z,10.30
2023-04-22T03:37:37.848Z,10.20
2023-04-22T03:40:06.668Z,10.20
2023-04-22T03:42:32.755Z,10.10
2023-04-22T03:44:58.793Z,10.10
2023-04-22T03:47:25.171Z,10.00
2023-04-22T03:49:54.676Z,10.00
2023-04-22T03:52:20.927Z,10.00
2023-04-22T03:54:52.583Z,9.98
2023-04-22T03:57:18.542Z,9.90
2023-04-22T03:59:44.592Z,9.90
2023-04-22T04:02:11.470Z,9.90
2023-04-22T04:04:38.181Z,9.90
2023-04-22T04:07:04.361Z,9.86
2023-04-22T04:09:30.290Z,9.80
2023-04-22T04:11:57.594Z,9.80
2023-04-22T04:14:24.750Z,9.80
2023-04-22T04:16:51.544Z,9.80
2023-04-22T04:19:24.233Z,9.80
2023-04-22T04:21:50.806Z,9.80
2023-04-22T04:24:16.784Z,9.80
2023-04-22T04:26:48.284Z,9.90
2023-04-22T04:29:20.794Z,9.90
2023-04-22T04:31:55.164Z,9.90
2023-04-22T04:34:22.259Z,9.90
2023-04-22T04:36:48.694Z,9.90
2023-04-22T04:39:19.884Z,9.94
2023-04-22T04:41:48.382Z,10.00
2023-04-22T04:44:15.448Z,10.00
2023-04-22T04:46:41.811Z,10.00
2023-04-22T04:49:08.867Z,10.04
2023-04-22T04:51:40.624Z,10.10
2023-04-22T04:54:06.454Z,10.10
2023-04-22T04:56:35.185Z,10.20
2023-04-22T04:59:01.470Z,10.20
2023-04-22T05:01:28.105Z,10.20
2023-04-22T05:03:56.741Z,10.30
2023-04-22T05:06:23.500Z,10.30
2023-04-22T05:08:53.896Z,10.40
2023-04-22T05:11:20.089Z,10.40
2023-04-22T05:13:47.763Z,10.50
2023-04-22T05:16:18.361Z,10.58
2023-04-22T05:18:45.353Z,10.64
2023-04-22T05:21:12.089Z,10.72
2023-04-22T05:23:38.963Z,10.80
2023-04-22T05:26:05.362Z,10.90
2023-04-22T05:28:31.267Z,10.92
2023-04-22T05:30:57.207Z,11.00
2023-04-22T05:33:24.814Z,11.08
2023-04-22T05:35:51.716Z,11.16
2023-04-22T05:38:17.832Z,11.24
2023-04-22T05:40:44.032Z,11.30
2023-04-22T05:43:11.000Z,11.48
2023-04-22T05:45:38.481Z,11.60
2023-04-22T05:48:05.190Z,11.70
2023-04-22T05:50:34.305Z,11.90
2023-04-22T05:53:05.145Z,12.16
2023-04-22T05:55:31.218Z,13.38
2023-04-22T05:57:57.271Z,15.20
2023-04-22T06:00:38.352Z,16.82
2023-04-22T06:03:12.353Z,18.28
2023-04-22T06:05:38.550Z,19.48
2023-04-22T06:08:04.718Z,20.64
2023-04-22T06:10:30.733Z,21.64
2023-04-22T06:12:56.734Z,22.70
2023-04-22T06:15:22.682Z,23.72
2023-04-22T06:17:48.865Z,24.44
2023-04-22T06:20:14.847Z,24.92
2023-04-22T06:22:40.738Z,25.10
2023-04-22T06:25:08.766Z,25.52
2023-04-22T06:27:34.763Z,26.50
2023-04-22T06:30:00.860Z,27.40
2023-04-22T06:32:28.467Z,27.90
2023-04-22T06:34:54.332Z,28.52
2023-04-22T06:37:20.421Z,29.08
2023-04-22T06:39:46.827Z,29.60
2023-04-22T06:42:39.728Z,29.50
2023-04-22T06:45:24.813Z,29.86
2023-04-22T06:48:03.349Z,30.30
2023-04-22T06:50:41.238Z,30.74
2023-04-22T06:53:09.196Z,31.18
2023-04-22T06:55:35.614Z,31.48
2023-04-22T06:58:01.686Z,31.46
2023-04-22T07:00:28.437Z,31.30
2023-04-22T07:02:54.523Z,31.30
2023-04-22T07:05:21.339Z,30.90
2023-04-22T07:07:47.398Z,29.24
2023-04-22T07:10:17.362Z,28.52
2023-04-22T07:12:54.580Z,27.72
2023-04-22T07:15:20.553Z,26.98
2023-04-22T07:17:46.535Z,26.06
2023-04-22T07:20:12.563Z,25.30
2023-04-22T07:22:38.624Z,24.58
2023-04-22T07:25:06.713Z,23.86
2023-04-22T07:27:37.019Z,23.38
2023-04-22T07:30:05.563Z,22.64
2023-04-22T07:32:31.398Z,22.30
2023-04-22T07:34:57.267Z,22.10
2023-04-22T07:37:23.280Z,21.90
2023-04-22T07:39:49.255Z,21.72
2023-04-22T07:42:15.554Z,21.56
2023-04-22T07:44:41.464Z,21.30
2023-04-22T07:47:07.863Z,21.10
2023-04-22T07:49:33.906Z,21.20
2023-04-22T07:51:59.843Z,21.62
2023-04-22T07:54:25.714Z,22.62
2023-04-22T07:56:51.648Z,23.86
2023-04-22T07:59:17.506Z,25.20
2023-04-22T08:01:45.577Z,26.46
2023-04-22T08:04:12.573Z,27.18
2023-04-22T08:06:38.849Z,27.82
2023-04-22T08:09:04.982Z,28.92
2023-04-22T08:11:30.974Z,29.94
2023-04-22T08:13:56.857Z,29.70
2023-04-22T08:16:23.011Z,30.42
2023-04-22T08:18:49.104Z,31.28
2023-04-22T08:21:15.049Z,32.08
2023-04-22T08:23:41.075Z,32.70
2023-04-22T08:26:07.738Z,32.20
2023-04-22T08:28:34.786Z,32.30
2023-04-22T08:31:00.725Z,33.24
2023-04-22T08:33:27.402Z,34.10
2023-04-22T08:35:53.398Z,35.00
2023-04-22T08:38:19.320Z,34.40
2023-04-22T08:40:45.629Z,33.84
2023-04-22T08:43:12.160Z,33.30
2023-04-22T08:45:39.898Z,33.10
2023-04-22T08:48:08.791Z,33.30
2023-04-22T08:50:40.766Z,33.30
2023-04-22T08:53:06.728Z,34.10
2023-04-22T08:55:35.173Z,34.14
2023-04-22T08:58:04.006Z,33.70
2023-04-22T09:00:31.690Z,33.00
2023-04-22T09:03:04.755Z,32.76
2023-04-22T09:05:35.754Z,32.30
2023-04-22T09:08:03.366Z,32.34
2023-04-22T09:10:33.991Z,33.08
2023-04-22T09:13:00.740Z,33.94
2023-04-22T09:15:27.032Z,34.94
2023-04-22T09:17:53.451Z,34.86
2023-04-22T09:20:26.869Z,35.30
2023-04-22T09:22:55.821Z,36.28
2023-04-22T09:25:26.257Z,37.12
2023-04-22T09:27:58.843Z,37.06
2023-04-22T09:30:34.227Z,36.56
2023-04-22T09:33:03.739Z,35.10
2023-04-22T09:35:32.812Z,34.90
2023-04-22T09:38:02.174Z,35.60
2023-04-22T09:40:31.616Z,36.42
2023-04-22T09:43:01.538Z,36.90
2023-04-22T09:45:37.514Z,37.28
2023-04-22T09:48:10.545Z,37.98
2023-04-22T09:50:39.910Z,38.40
2023-04-22T09:53:09.424Z,38.50
2023-04-22T09:55:40.936Z,38.38
2023-04-22T09:58:10.552Z,37.04
2023-04-22T10:00:53.540Z,35.64
2023-04-22T10:03:19.997Z,33.94
2023-04-22T10:05:46.266Z,33.20
2023-04-22T10:08:15.440Z,33.10
2023-04-22T10:10:43.046Z,33.00
2023-04-22T10:13:09.165Z,31.92
2023-04-22T10:15:40.797Z,30.52
2023-04-22T10:18:12.289Z,29.76
2023-04-22T10:20:40.865Z,29.60
2023-04-22T10:23:18.980Z,29.64
2023-04-22T10:25:55.427Z,29.38
2023-04-22T10:28:24.299Z,28.90
2023-04-22T10:30:51.025Z,28.82
2023-04-22T10:33:34.124Z,28.70
2023-04-22T10:36:17.040Z,28.60
2023-04-22T10:38:52.291Z,28.24
2023-04-22T10:41:24.721Z,27.50
2023-04-22T10:43:58.929Z,27.50
2023-04-22T10:46:34.934Z,27.40
2023-04-22T10:49:17.748Z,27.40
2023-04-22T10:51:48.558Z,26.92
2023-04-22T10:54:36.253Z,26.44
2023-04-22T10:57:11.282Z,26.40
2023-04-22T10:59:49.542Z,26.50
2023-04-22T11:02:18.306Z,26.50
2023-04-22T11:04:45.081Z,26.42
2023-04-22T11:07:21.853Z,26.44
2023-04-22T11:10:06.355Z,26.00
2023-04-22T11:12:35.072Z,26.00
2023-04-22T11:15:05.555Z,26.10
2023-04-22T11:17:31.821Z,25.90
2023-04-22T11:19:58.476Z,26.02
2023-04-22T11:22:24.976Z,25.90
2023-04-22T11:24:59.273Z,25.80
2023-04-22T11:27:26.781Z,25.70
2023-04-22T11:30:12.636Z,25.70
2023-04-22T11:32:42.600Z,25.70
2023-04-22T11:35:11.865Z,25.58
2023-04-22T11:37:55.397Z,25.40
2023-04-22T11:42:56.083Z,25.20
2023-04-22T11:45:22.595Z,25.10
2023-04-22T11:47:50.887Z,25.30
2023-04-22T11:50:21.384Z,25.30
2023-04-22T11:53:02.780Z,25.30
2023-04-22T11:55:34.939Z,25.20
2023-04-22T11:58:09.224Z,25.22
2023-04-22T12:00:41.274Z,25.20
2023-04-22T12:03:16.959Z,25.20
2023-04-22T12:06:02.585Z,25.22
2023-04-22T12:08:36.083Z,25.10
2023-04-22T12:11:06.402Z,25.10
2023-04-22T12:13:45.543Z,24.80
2023-04-22T12:16:18.518Z,24.60
2023-04-22T12:18:47.416Z,24.60
2023-04-22T12:21:21.515Z,24.60
2023-04-22T12:23:51.502Z,24.60
2023-04-22T12:26:22.113Z,24.70
2023-04-22T12:28:50.476Z,24.60
2023-04-22T12:31:17.779Z,24.40
2023-04-22T12:33:45.640Z,24.30
2023-04-22T12:36:12.158Z,24.56
2023-04-22T12:38:38.385Z,24.60
2023-04-22T12:41:06.055Z,24.60
2023-04-22T12:43:35.591Z,24.70
2023-04-22T12:46:06.868Z,24.70
2023-04-22T12:48:33.076Z,24.74
2023-04-22T12:50:59.435Z,24.80
2023-04-22T12:53:27.301Z,24.80
2023-04-22T12:55:54.088Z,24.80
2023-04-22T12:58:20.314Z,24.80
2023-04-22T13:00:46.317Z,24.80
2023-04-22T13:03:12.536Z,24.84
2023-04-22T13:05:41.403Z,24.90
2023-04-22T13:08:08.205Z,24.80
2023-04-22T13:10:34.915Z,24.90
2023-04-22T13:13:15.945Z,25.10
2023-04-22T13:15:46.180Z,25.14
2023-04-22T13:18:12.253Z,25.10
2023-04-22T13:20:39.376Z,25.12
2023-04-22T13:23:05.260Z,25.20
2023-04-22T13:25:31.569Z,25.20
2023-04-22T13:27:57.500Z,25.20
2023-04-22T13:30:23.420Z,25.00
2023-04-22T13:32:49.606Z,24.90
2023-04-22T13:35:17.802Z,25.00
2023-04-22T13:37:43.841Z,25.20
2023-04-22T13:40:10.406Z,25.10
2023-04-22T13:42:36.280Z,25.12
2023-04-22T13:45:02.421Z,25.20
2023-04-22T13:47:28.687Z,25.20
2023-04-22T13:49:54.632Z,25.00
2023-04-22T13:52:21.033Z,24.90
2023-04-22T13:54:46.955Z,24.90
2023-04-22T13:57:12.829Z,24.90
2023-04-22T13:59:40.786Z,24.90
2023-04-22T14:02:07.286Z,24.90
2023-04-22T14:04:33.270Z,24.80
2023-04-22T14:06:59.201Z,24.90
2023-04-22T14:09:25.590Z,25.00
2023-04-22T14:11:51.481Z,25.00
2023-04-22T14:14:17.378Z,25.10
2023-04-22T14:16:43.307Z,25.20
2023-04-22T14:19:09.508Z,25.20
2023-04-22T14:21:35.514Z,25.00
2023-04-22T14:24:01.488Z,25.00
2023-04-22T14:26:27.435Z,24.90
2023-04-22T14:28:53.328Z,24.84
2023-04-22T14:31:19.391Z,24.80
2023-04-22T14:33:45.350Z,24.74
2023-04-22T14:36:11.285Z,24.70
2023-04-22T14:38:37.291Z,24.62
2023-04-22T14:41:05.404Z,24.70
2023-04-22T14:43:33.249Z,24.80
2023-04-22T14:46:00.240Z,24.60
2023-04-22T14:48:30.197Z,24.50
2023-04-22T14:50:57.465Z,24.40
2023-04-22T14:53:23.375Z,24.30
2023-04-22T14:55:49.225Z,24.30
2023-04-22T14:58:15.050Z,24.20
2023-04-22T15:00:41.010Z,24.20
2023-04-22T15:03:07.013Z,24.20
2023-04-22T15:05:32.963Z,24.30
2023-04-22T15:07:59.001Z,24.28
2023-04-22T15:10:26.149Z,24.24
2023-04-22T15:12:53.313Z,24.20
2023-04-22T15:15:19.494Z,24.10
2023-04-22T15:17:45.702Z,24.10
2023-04-22T15:20:13.590Z,24.10
2023-04-22T15:22:40.899Z,23.98
2023-04-22T15:25:09.188Z,23.80
2023-04-22T15:27:36.801Z,23.70
2023-04-22T15:30:05.353Z,23.70
2023-04-22T15:32:31.534Z,23.60
2023-04-22T15:34:57.418Z,23.60
2023-04-22T15:37:23.543Z,23.50
2023-04-22T15:39:49.440Z,23.50
2023-04-22T15:42:15.324Z,23.50
2023-04-22T15:44:42.552Z,23.50
2023-04-22T15:47:09.032Z,23.50
2023-04-22T15:49:37.832Z,23.50
2023-04-22T15:52:04.361Z,23.40
2023-04-22T15:54:30.292Z,23.30
2023-04-22T15:56:57.012Z,23.30
2023-04-22T15:59:22.926Z,23.22
2023-04-22T16:02:13.848Z,23.20
2023-04-22T16:04:40.155Z,23.10
2023-04-22T16:07:06.327Z,23.10
2023-04-22T16:09:32.184Z,23.00
2023-04-22T16:12:02.453Z,22.90
2023-04-22T16:14:28.324Z,22.88
2023-04-22T16:16:54.349Z,22.80
2023-04-22T16:19:20.339Z,22.74
2023-04-22T16:21:46.268Z,22.70
2023-04-22T16:24:13.870Z,22.60
2023-04-22T16:26:42.339Z,22.58
2023-04-22T16:29:08.244Z,22.50
2023-04-22T16:31:34.452Z,22.50
2023-04-22T16:34:00.463Z,22.50
2023-04-22T16:36:26.354Z,22.40
2023-04-22T16:38:52.219Z,22.30
2023-04-22T16:41:19.413Z,22.30
2023-04-22T16:43:45.399Z,22.30
2023-04-22T16:46:11.416Z,22.30
2023-04-22T16:48:37.429Z,22.30
2023-04-22T16:51:03.746Z,22.30
2023-04-22T16:53:30.497Z,22.30
2023-04-22T16:55:56.725Z,22.20
2023-04-22T16:58:22.841Z,22.20
2023-04-22T17:00:48.695Z,22.20
2023-04-22T17:03:15.082Z,22.10
2023-04-22T17:05:41.181Z,22.10
2023-04-22T17:08:07.064Z,22.00
2023-04-22T17:10:34.291Z,21.90
2023-04-22T17:13:00.748Z,21.90
2023-04-22T17:15:26.772Z,21.90
2023-04-22T17:17:52.665Z,21.82
2023-04-22T17:20:18.605Z,21.80
2023-04-22T17:22:44.461Z,21.70
2023-04-22T17:25:10.373Z,21.70
2023-04-22T17:27:36.301Z,21.64
2023-04-22T17:30:02.711Z,21.60
2023-04-22T17:32:28.743Z,21.50
2023-04-22T17:34:54.803Z,21.50
2023-04-22T17:37:20.771Z,21.40
2023-04-22T17:39:46.778Z,21.40
2023-04-22T17:42:13.442Z,21.38
2023-04-22T17:44:40.490Z,21.30
2023-04-22T17:47:07.516Z,21.30
2023-04-22T17:49:33.735Z,21.30
2023-04-22T17:51:59.778Z,21.20
2023-04-22T17:54:25.675Z,21.20
2023-04-22T17:56:51.623Z,21.10
2023-04-22T17:59:18.005Z,21.10
2023-04-22T18:01:44.073Z,21.00
2023-04-22T18:04:10.131Z,21.00
2023-04-22T18:06:36.219Z,20.90
2023-04-22T18:09:02.180Z,20.90
2023-04-22T18:11:28.185Z,20.90
2023-04-22T18:13:54.544Z,20.80
2023-04-22T18:16:20.838Z,20.80
2023-04-22T18:18:46.777Z,20.80
2023-04-22T18:21:12.772Z,20.80
2023-04-22T18:23:38.721Z,20.70
2023-04-22T18:26:08.994Z,20.70
2023-04-22T18:28:38.940Z,20.60
2023-04-22T18:31:07.322Z,20.58
2023-04-22T18:33:33.850Z,20.50
2023-04-22T18:36:00.228Z,20.40
2023-04-22T18:38:26.512Z,20.40
2023-04-22T18:40:54.264Z,20.40
2023-04-22T18:43:20.279Z,20.40
2023-04-22T18:45:46.190Z,20.40
2023-04-22T18:48:12.098Z,20.40
2023-04-22T18:50:38.091Z,20.36
2023-04-22T18:53:04.133Z,20.30
2023-04-22T18:55:30.161Z,20.30
2023-04-22T18:57:56.006Z,20.20
2023-04-22T19:00:22.184Z,20.20
2023-04-22T19:02:48.343Z,20.20
2023-04-22T19:05:14.466Z,20.10
2023-04-22T19:07:42.558Z,20.10
2023-04-22T19:10:10.622Z,20.10
2023-04-22T19:12:36.496Z,20.00
2023-04-22T19:15:02.763Z,20.00
2023-04-22T19:17:28.929Z,20.00
2023-04-22T19:19:54.892Z,20.00
2023-04-22T19:22:21.581Z,20.00
2023-04-22T19:24:47.497Z,19.94
2023-04-22T19:27:14.105Z,19.90
2023-04-22T19:29:42.251Z,19.90
2023-04-22T19:32:10.224Z,19.90
2023-04-22T19:34:37.556Z,19.90
2023-04-22T19:37:03.935Z,19.80
2023-04-22T19:39:30.557Z,19.80
2023-04-22T19:41:57.747Z,19.70
2023-04-22T19:44:24.557Z,19.70
2023-04-22T19:46:50.555Z,19.60
2023-04-22T19:49:17.388Z,19.60
2023-04-22T19:51:45.171Z,19.60
2023-04-22T19:54:13.129Z,19.50
2023-04-22T19:56:40.640Z,19.40
2023-04-22T19:59:07.183Z,19.40
2023-04-22T20:01:33.930Z,19.48
2023-04-22T20:04:00.957Z,19.40
2023-04-22T20:06:30.952Z,19.40
2023-04-22T20:08:59.099Z,19.30
2023-04-22T20:11:25.775Z,19.30
2023-04-22T20:13:52.541Z,19.20
2023-04-22T20:16:20.064Z,19.20
2023-04-22T20:18:46.135Z,19.10
2023-04-22T20:21:13.531Z,19.10
2023-04-22T20:23:41.657Z,19.06
2023-04-22T20:26:08.692Z,19.00
2023-04-22T20:28:51.158Z,18.90
2023-04-22T20:31:19.796Z,18.90
2023-04-22T20:33:46.130Z,18.80
2023-04-22T20:36:16.333Z,18.70
2023-04-22T20:38:46.674Z,18.60
2023-04-22T20:41:13.088Z,18.50
2023-04-22T20:43:38.979Z,18.50
2023-04-22T20:46:04.940Z,18.40
2023-04-22T20:48:30.822Z,18.30
2023-04-22T20:50:56.771Z,18.30
2023-04-22T20:53:23.911Z,18.22
2023-04-22T20:55:50.262Z,18.20
2023-04-22T20:58:16.330Z,18.10
2023-04-22T21:00:42.755Z,18.00
2023-04-22T21:03:09.485Z,17.90
2023-04-22T21:05:42.561Z,17.90
2023-04-22T21:08:25.177Z,17.80
2023-04-22T21:10:54.109Z,17.80
2023-04-22T21:13:21.151Z,17.80
2023-04-22T21:15:58.584Z,17.80
2023-04-22T21:18:25.927Z,17.70
2023-04-22T21:20:53.223Z,17.60
2023-04-22T21:23:19.918Z,17.60
2023-04-22T21:25:49.842Z,17.60
2023-04-22T21:28:16.969Z,17.60
2023-04-22T21:30:43.869Z,17.50
2023-04-22T21:33:10.069Z,17.50
2023-04-22T21:35:36.108Z,17.40
2023-04-22T21:38:02.395Z,17.38
2023-04-22T21:40:28.600Z,17.30
2023-04-22T21:42:54.750Z,17.30
2023-04-22T21:45:20.828Z,17.28
2023-04-22T21:47:46.728Z,17.20
2023-04-22T21:50:12.724Z,17.20
2023-04-22T21:52:38.824Z,17.12
2023-04-22T21:55:05.952Z,17.10
2023-04-22T21:57:31.906Z,17.10
2023-04-22T21:59:57.865Z,17.10
2023-04-22T22:02:25.807Z,17.10
2023-04-22T22:04:52.254Z,17.00
2023-04-22T22:07:18.906Z,17.00
2023-04-22T22:09:45.769Z,16.98
2023-04-22T22:12:28.729Z,16.90
2023-04-22T22:14:54.784Z,16.90
2023-04-22T22:17:20.730Z,16.80
2023-04-22T22:19:48.310Z,16.80
2023-04-22T22:22:14.172Z,16.80
2023-04-22T22:24:40.297Z,16.80
2023-04-22T22:27:07.430Z,16.80
2023-04-22T22:29:33.551Z,16.80
2023-04-22T22:31:59.456Z,16.80
2023-04-22T22:34:25.438Z,16.80
2023-04-22T22:36:51.396Z,16.80
2023-04-22T22:39:17.441Z,16.80
2023-04-22T22:41:44.044Z,16.80
2023-04-22T22:44:10.427Z,16.80
2023-04-22T22:46:37.091Z,16.80
2023-04-22T22:49:02.963Z,16.80
2023-04-22T22:51:29.255Z,16.80
2023-04-22T22:53:55.411Z,16.80
2023-04-22T22:56:21.287Z,16.70
2023-04-22T22:58:47.548Z,16.70
2023-04-22T23:01:14.862Z,16.70
2023-04-22T23:03:41.013Z,16.66
2023-04-22T23:06:07.208Z,16.62
2023-04-22T23:08:33.201Z,16.70
2023-04-22T23:11:00.143Z,16.70
2023-04-22T23:13:27.180Z,16.60
2023-04-22T23:15:53.131Z,16.60
2023-04-22T23:18:19.207Z,16.60
2023-04-22T23:20:47.339Z,16.60
2023-04-22T23:23:15.955Z,16.60
2023-04-22T23:25:42.276Z,16.60
2023-04-22T23:28:08.643Z,16.60
2023-04-22T23:30:34.997Z,16.60
2023-04-22T23:33:03.797Z,16.60
2023-04-22T23:35:32.518Z,16.60
2023-04-22T23:38:00.115Z,16.60
2023-04-22T23:40:26.366Z,16.60
2023-04-22T23:42:52.292Z,16.60
2023-04-22T23:45:18.161Z,16.60
2023-04-22T23:47:44.187Z,16.60
2023-04-22T23:50:11.406Z,16.50
2023-04-22T23:52:40.416Z,16.50
2023-04-22T23:55:09.649Z,16.50
2023-04-22T23:57:38.894Z,16.50
